createdAt,value
2022-10-05T00:00:14.152Z,34.23
2022-10-05T00:03:11.036Z,33.56
2022-10-05T00:05:39.733Z,34.41
2022-10-05T00:08:14.717Z,33.79
2022-10-05T00:10:43.966Z,34.31
2022-10-05T00:13:16.217Z,33.74
2022-10-05T00:15:45.263Z,33.73
2022-10-05T00:18:17.439Z,33.65
2022-10-05T00:20:46.677Z,33.97
2022-10-05T00:23:19.846Z,33.93
2022-10-05T00:25:48.509Z,34.42
2022-10-05T00:28:19.795Z,33.83
2022-10-05T00:30:48.232Z,34.39
2022-10-05T00:33:16.465Z,34.36
2022-10-05T00:35:44.738Z,34.32
2022-10-05T00:38:12.891Z,34.08
2022-10-05T00:40:54.554Z,33.25
2022-10-05T00:43:44.969Z,33.97
2022-10-05T00:46:16.569Z,33.91
2022-10-05T00:48:54.510Z,34.00
2022-10-05T00:51:26.796Z,34.40
2022-10-05T00:54:03.311Z,34.31
2022-10-05T00:56:43.429Z,34.10
2022-10-05T00:59:19.747Z,34.23
2022-10-05T01:01:52.202Z,34.26
2022-10-05T01:04:23.565Z,33.98
2022-10-05T01:07:01.218Z,34.08
2022-10-05T01:09:34.711Z,33.60
2022-10-05T01:12:08.873Z,33.51
2022-10-05T01:14:44.789Z,33.69
2022-10-05T01:17:18.495Z,33.86
2022-10-05T01:20:08.325Z,33.37
2022-10-05T01:22:48.727Z,33.38
2022-10-05T01:25:21.422Z,32.34
2022-10-05T01:28:01.448Z,33.26
2022-10-05T01:30:34.522Z,33.60
2022-10-05T01:33:07.254Z,33.69
2022-10-05T01:35:44.267Z,33.20
2022-10-05T01:38:21.907Z,33.40
2022-10-05T01:40:56.022Z,33.62
2022-10-05T01:43:32.848Z,33.72
2022-10-05T01:46:04.676Z,33.71
2022-10-05T01:48:38.693Z,33.62
2022-10-05T01:51:13.795Z,34.04
2022-10-05T01:53:51.199Z,34.14
2022-10-05T01:56:25.978Z,34.35
2022-10-05T01:59:03.152Z,34.31
2022-10-05T02:01:37.758Z,34.36
2022-10-05T02:04:11.502Z,34.12
2022-10-05T02:06:42.812Z,34.16
2022-10-05T02:09:14.679Z,34.59
2022-10-05T02:11:46.027Z,34.62
2022-10-05T02:14:19.226Z,34.46
2022-10-05T02:16:48.890Z,34.63
2022-10-05T02:19:22.126Z,34.42
2022-10-05T02:21:54.723Z,34.43
2022-10-05T02:24:24.976Z,34.31
2022-10-05T02:26:54.733Z,34.29
2022-10-05T02:29:26.896Z,33.77
2022-10-05T02:31:59.033Z,33.54
2022-10-05T02:34:28.961Z,33.91
2022-10-05T02:37:08.796Z,33.91
2022-10-05T02:39:43.597Z,34.09
2022-10-05T02:42:16.848Z,33.92
2022-10-05T02:44:50.867Z,33.76
2022-10-05T02:47:24.998Z,33.64
2022-10-05T02:49:57.687Z,33.84
2022-10-05T02:52:28.537Z,34.18
2022-10-05T02:55:03.731Z,33.71
2022-10-05T02:57:36.868Z,33.67
2022-10-05T03:00:10.409Z,33.66
2022-10-05T03:02:43.050Z,33.66
2022-10-05T03:05:19.083Z,33.58
2022-10-05T03:07:53.401Z,33.67
2022-10-05T03:10:28.154Z,34.01
2022-10-05T03:13:02.308Z,33.71
2022-10-05T03:15:52.626Z,32.64
2022-10-05T03:18:30.770Z,33.23
2022-10-05T03:21:08.051Z,33.25
2022-10-05T03:23:45.889Z,33.18
2022-10-05T03:26:27.702Z,33.18
2022-10-05T03:29:00.307Z,33.32
2022-10-05T03:31:34.054Z,33.47
2022-10-05T03:34:08.057Z,33.74
2022-10-05T03:36:42.518Z,33.26
2022-10-05T03:39:16.214Z,33.58
2022-10-05T03:41:48.848Z,33.31
2022-10-05T03:44:25.706Z,33.32
2022-10-05T03:47:06.984Z,33.46
2022-10-05T03:49:37.987Z,32.86
2022-10-05T03:52:11.228Z,33.92
2022-10-05T03:54:41.549Z,34.18
2022-10-05T03:57:12.768Z,34.33
2022-10-05T03:59:45.644Z,34.09
2022-10-05T04:02:22.072Z,33.82
2022-10-05T04:04:54.379Z,34.10
2022-10-05T04:07:31.013Z,33.60
2022-10-05T04:09:59.638Z,34.35
2022-10-05T04:12:30.579Z,34.30
2022-10-05T04:15:01.402Z,34.29
2022-10-05T04:17:34.476Z,34.32
2022-10-05T04:20:06.336Z,34.44
2022-10-05T04:22:38.533Z,33.95
2022-10-05T04:25:15.711Z,33.45
2022-10-05T04:27:46.896Z,33.91
2022-10-05T04:30:17.645Z,33.58
2022-10-05T04:32:51.057Z,33.58
2022-10-05T04:35:30.931Z,33.50
2022-10-05T04:38:09.715Z,33.65
2022-10-05T04:40:45.878Z,33.40
2022-10-05T04:43:17.618Z,33.95
2022-10-05T04:46:16.114Z,33.30
2022-10-05T04:48:58.820Z,33.26
2022-10-05T04:51:36.900Z,33.32
2022-10-05T04:54:15.448Z,33.12
2022-10-05T04:56:47.146Z,33.72
2022-10-05T04:59:53.160Z,33.12
2022-10-05T05:02:28.076Z,33.01
2022-10-05T05:05:23.183Z,33.38
2022-10-05T05:07:55.750Z,33.47
2022-10-05T05:10:51.564Z,33.01
2022-10-05T05:13:34.410Z,33.23
2022-10-05T05:16:06.439Z,33.34
2022-10-05T05:18:55.558Z,32.91
2022-10-05T05:21:34.483Z,33.03
2022-10-05T05:24:07.012Z,33.12
2022-10-05T05:26:47.042Z,32.77
2022-10-05T05:29:19.081Z,32.12
2022-10-05T05:31:50.382Z,31.50
2022-10-05T05:34:33.530Z,30.37
2022-10-05T05:37:07.840Z,30.21
2022-10-05T05:39:43.578Z,30.38
2022-10-05T05:42:20.738Z,30.49
2022-10-05T05:44:52.015Z,30.93
2022-10-05T05:47:20.839Z,29.55
2022-10-05T05:50:05.589Z,30.39
2022-10-05T05:52:40.741Z,29.61
2022-10-05T05:55:15.665Z,28.14
2022-10-05T05:57:46.292Z,27.13
2022-10-05T06:00:20.609Z,26.15
2022-10-05T06:02:53.954Z,24.82
2022-10-05T06:05:29.041Z,23.97
2022-10-05T06:07:59.762Z,23.75
2022-10-05T06:10:33.650Z,22.89
2022-10-05T06:13:06.868Z,22.49
2022-10-05T06:15:37.470Z,22.59
2022-10-05T06:18:11.012Z,23.14
2022-10-05T06:20:42.335Z,24.22
2022-10-05T06:23:16.833Z,25.31
2022-10-05T06:25:56.073Z,25.20
2022-10-05T06:28:26.297Z,24.18
2022-10-05T06:31:03.209Z,22.13
2022-10-05T06:33:44.177Z,20.86
2022-10-05T06:36:22.146Z,19.61
2022-10-05T06:39:06.291Z,18.25
2022-10-05T06:41:43.177Z,17.76
2022-10-05T06:44:14.808Z,16.79
2022-10-05T06:46:51.893Z,15.67
2022-10-05T06:49:21.880Z,14.52
2022-10-05T06:51:54.222Z,14.37
2022-10-05T06:54:31.906Z,13.18
2022-10-05T06:57:06.098Z,12.40
2022-10-05T06:59:39.145Z,12.56
2022-10-05T07:02:11.660Z,12.66
2022-10-05T07:04:52.471Z,12.88
2022-10-05T07:07:25.108Z,12.88
2022-10-05T07:10:03.466Z,13.00
2022-10-05T07:12:45.234Z,12.77
2022-10-05T07:15:39.817Z,12.75
2022-10-05T07:18:25.330Z,13.02
2022-10-05T07:20:58.932Z,13.01
2022-10-05T07:23:38.970Z,13.01
2022-10-05T07:26:11.704Z,13.77
2022-10-05T07:28:46.386Z,14.04
2022-10-05T07:31:19.760Z,14.76
2022-10-05T07:33:53.357Z,14.28
2022-10-05T07:36:49.696Z,14.60
2022-10-05T07:39:42.025Z,13.92
2022-10-05T07:42:24.981Z,12.84
2022-10-05T07:44:57.304Z,13.18
2022-10-05T07:47:30.323Z,13.21
2022-10-05T07:50:02.608Z,13.28
2022-10-05T07:52:34.988Z,13.19
2022-10-05T07:55:06.563Z,13.16
2022-10-05T07:57:40.739Z,12.98
2022-10-05T08:00:15.054Z,12.53
2022-10-05T08:02:47.030Z,12.45
2022-10-05T08:05:21.054Z,11.97
2022-10-05T08:07:52.875Z,11.71
2022-10-05T08:10:31.408Z,11.48
2022-10-05T08:13:08.655Z,10.71
2022-10-05T08:15:43.132Z,11.26
2022-10-05T08:18:19.038Z,10.96
2022-10-05T08:20:49.137Z,11.55
2022-10-05T08:23:23.105Z,11.13
2022-10-05T08:25:58.727Z,10.72
2022-10-05T08:28:32.961Z,10.97
2022-10-05T08:31:06.093Z,11.97
2022-10-05T08:33:39.507Z,12.89
2022-10-05T08:36:10.868Z,13.52
2022-10-05T08:38:39.905Z,14.31
2022-10-05T08:41:34.292Z,13.57
2022-10-05T08:44:38.098Z,12.92
2022-10-05T08:47:19.754Z,12.31
2022-10-05T08:50:01.480Z,11.92
2022-10-05T08:52:30.269Z,12.86
2022-10-05T08:55:30.990Z,12.92
2022-10-05T08:58:16.955Z,13.53
2022-10-05T09:00:55.323Z,13.31
2022-10-05T09:03:49.886Z,13.42
2022-10-05T09:06:34.673Z,12.72
2022-10-05T09:09:32.295Z,12.83
2022-10-05T09:12:18.571Z,13.57
2022-10-05T09:15:13.713Z,14.50
2022-10-05T09:18:25.553Z,14.59
2022-10-05T09:20:54.735Z,15.54
2022-10-05T09:23:38.193Z,15.26
2022-10-05T09:26:24.381Z,15.68
2022-10-05T09:29:03.356Z,15.52
2022-10-05T09:31:50.092Z,15.48
2022-10-05T09:34:35.586Z,14.97
2022-10-05T09:37:30.094Z,15.35
2022-10-05T09:40:29.706Z,15.62
2022-10-05T09:43:07.020Z,16.55
2022-10-05T09:45:54.431Z,16.62
2022-10-05T09:48:59.184Z,15.88
2022-10-05T09:52:08.293Z,15.17
2022-10-05T09:55:26.954Z,14.55
2022-10-05T09:58:33.407Z,13.90
2022-10-05T10:01:33.234Z,12.81
2022-10-05T10:04:18.941Z,11.88
2022-10-05T10:07:25.159Z,10.87
2022-10-05T10:10:24.064Z,10.30
2022-10-05T10:13:09.354Z,10.06
2022-10-05T10:16:05.872Z,10.50
2022-10-05T10:19:00.688Z,10.38
2022-10-05T10:21:42.253Z,10.70
2022-10-05T10:24:18.387Z,10.23
2022-10-05T10:27:11.615Z,10.14
2022-10-05T10:30:05.891Z,9.76
2022-10-05T10:33:15.621Z,9.63
2022-10-05T10:35:47.170Z,10.38
2022-10-05T10:38:31.899Z,10.53
2022-10-05T10:41:22.821Z,11.17
2022-10-05T10:44:24.282Z,12.10
2022-10-05T10:46:55.020Z,11.91
2022-10-05T10:49:37.312Z,12.80
2022-10-05T10:52:27.473Z,12.74
2022-10-05T10:55:17.389Z,13.07
2022-10-05T10:58:04.099Z,13.56
2022-10-05T11:00:44.232Z,13.33
2022-10-05T11:03:53.996Z,12.91
2022-10-05T11:06:32.933Z,13.42
2022-10-05T11:09:33.872Z,13.64
2022-10-05T11:12:07.539Z,13.39
2022-10-05T11:14:46.759Z,13.82
2022-10-05T11:17:33.528Z,13.96
2022-10-05T11:20:09.430Z,14.58
2022-10-05T11:22:51.838Z,14.63
2022-10-05T11:25:32.394Z,14.62
2022-10-05T11:28:34.759Z,14.83
2022-10-05T11:31:45.313Z,14.79
2022-10-05T11:34:59.677Z,15.03
2022-10-05T11:37:57.528Z,14.95
2022-10-05T11:41:01.520Z,14.32
2022-10-05T11:43:54.565Z,14.36
2022-10-05T11:46:29.471Z,14.63
2022-10-05T11:49:09.816Z,14.82
2022-10-05T11:51:43.362Z,15.14
2022-10-05T11:54:23.630Z,15.36
2022-10-05T11:56:55.007Z,15.64
2022-10-05T11:59:30.149Z,16.06
2022-10-05T12:02:08.180Z,15.92
2022-10-05T12:04:45.530Z,15.88
2022-10-05T12:07:20.498Z,16.05
2022-10-05T12:10:17.548Z,15.97
2022-10-05T12:12:55.455Z,16.28
2022-10-05T12:15:27.371Z,16.98
2022-10-05T12:18:04.878Z,17.13
2022-10-05T12:20:36.719Z,18.10
2022-10-05T12:23:08.384Z,17.96
2022-10-05T12:25:40.288Z,18.04
2022-10-05T12:28:12.828Z,17.97
2022-10-05T12:31:01.611Z,17.55
2022-10-05T12:33:35.501Z,17.80
2022-10-05T12:36:07.437Z,17.90
2022-10-05T12:38:38.895Z,18.15
2022-10-05T12:41:08.354Z,17.91
2022-10-05T12:43:47.225Z,18.15
2022-10-05T12:46:21.548Z,18.57
2022-10-05T12:49:13.227Z,18.13
2022-10-05T12:51:43.830Z,18.49
2022-10-05T12:54:18.660Z,18.22
2022-10-05T12:56:53.982Z,18.05
2022-10-05T12:59:32.280Z,18.08
2022-10-05T13:02:04.155Z,18.50
2022-10-05T13:04:40.946Z,18.18
2022-10-05T13:07:23.120Z,18.16
2022-10-05T13:09:58.736Z,18.46
2022-10-05T13:12:36.484Z,18.27
2022-10-05T13:15:11.941Z,18.28
2022-10-05T13:17:45.725Z,18.52
2022-10-05T13:20:21.732Z,18.72
2022-10-05T13:22:55.266Z,19.00
2022-10-05T13:25:28.610Z,19.11
2022-10-05T13:28:10.623Z,19.27
2022-10-05T13:30:41.112Z,19.74
2022-10-05T13:33:18.185Z,19.50
2022-10-05T13:35:52.266Z,19.60
2022-10-05T13:38:27.145Z,20.06
2022-10-05T13:41:02.206Z,19.92
2022-10-05T13:43:39.665Z,20.06
2022-10-05T13:46:11.834Z,20.22
2022-10-05T13:48:51.042Z,19.94
2022-10-05T13:51:23.654Z,20.19
2022-10-05T13:53:57.763Z,20.27
2022-10-05T13:56:30.470Z,20.55
2022-10-05T13:59:07.798Z,20.58
2022-10-05T14:01:42.588Z,20.36
2022-10-05T14:04:18.037Z,20.63
2022-10-05T14:06:48.744Z,21.05
2022-10-05T14:09:30.194Z,20.92
2022-10-05T14:12:14.314Z,21.07
2022-10-05T14:14:46.933Z,21.43
2022-10-05T14:17:17.735Z,21.31
2022-10-05T14:19:48.464Z,21.31
2022-10-05T14:22:24.217Z,20.97
2022-10-05T14:24:55.656Z,21.00
2022-10-05T14:27:26.591Z,21.11
2022-10-05T14:29:58.318Z,21.27
2022-10-05T14:32:28.651Z,21.85
2022-10-05T14:35:01.382Z,21.59
2022-10-05T14:37:44.416Z,21.30
2022-10-05T14:40:33.667Z,21.21
2022-10-05T14:43:16.681Z,21.66
2022-10-05T14:45:55.177Z,21.03
2022-10-05T14:48:24.191Z,22.01
2022-10-05T14:50:55.132Z,21.69
2022-10-05T14:53:26.320Z,21.27
2022-10-05T14:56:27.611Z,20.71
2022-10-05T14:59:23.317Z,20.93
2022-10-05T15:01:57.548Z,21.00
2022-10-05T15:04:37.012Z,21.12
2022-10-05T15:07:19.561Z,20.74
2022-10-05T15:10:01.699Z,21.04
2022-10-05T15:12:32.972Z,21.39
2022-10-05T15:15:06.627Z,21.66
2022-10-05T15:17:38.571Z,22.04
2022-10-05T15:20:18.659Z,21.87
2022-10-05T15:22:51.566Z,21.83
2022-10-05T15:25:27.898Z,22.18
2022-10-05T15:28:08.319Z,21.64
2022-10-05T15:30:39.420Z,22.60
2022-10-05T15:33:14.237Z,22.24
2022-10-05T15:35:48.875Z,22.09
2022-10-05T15:38:22.217Z,22.22
2022-10-05T15:40:59.769Z,22.65
2022-10-05T15:43:36.072Z,22.67
2022-10-05T15:46:08.751Z,22.94
2022-10-05T15:48:47.065Z,22.51
2022-10-05T15:51:22.509Z,22.95
2022-10-05T15:54:16.002Z,22.99
2022-10-05T15:56:49.394Z,23.25
2022-10-05T15:59:24.664Z,23.42
2022-10-05T16:01:55.779Z,24.02
2022-10-05T16:04:24.735Z,22.81
2022-10-05T16:07:14.111Z,23.53
2022-10-05T16:09:52.025Z,23.37
2022-10-05T16:12:30.628Z,23.67
2022-10-05T16:15:07.013Z,23.61
2022-10-05T16:17:51.160Z,23.37
2022-10-05T16:20:30.336Z,23.64
2022-10-05T16:23:04.275Z,23.50
2022-10-05T16:25:44.223Z,23.49
2022-10-05T16:28:21.555Z,23.81
2022-10-05T16:31:09.796Z,23.65
2022-10-05T16:33:48.197Z,23.68
2022-10-05T16:36:23.002Z,24.33
2022-10-05T16:38:57.861Z,23.87
2022-10-05T16:41:42.994Z,24.22
2022-10-05T16:44:18.949Z,24.23
2022-10-05T16:46:51.556Z,24.61
2022-10-05T16:49:29.832Z,24.24
2022-10-05T16:52:11.703Z,24.04
2022-10-05T16:54:47.502Z,24.37
2022-10-05T16:57:21.104Z,24.67
2022-10-05T17:00:12.181Z,23.47
2022-10-05T17:02:58.788Z,24.03
2022-10-05T17:05:40.393Z,24.40
2022-10-05T17:08:36.825Z,24.52
2022-10-05T17:11:15.983Z,24.60
2022-10-05T17:14:26.698Z,24.13
2022-10-05T17:17:17.715Z,24.34
2022-10-05T17:19:54.106Z,24.65
2022-10-05T17:22:26.736Z,25.30
2022-10-05T17:25:00.688Z,24.97
2022-10-05T17:27:35.368Z,24.76
2022-10-05T17:30:37.499Z,24.15
2022-10-05T17:33:20.936Z,24.49
2022-10-05T17:35:55.317Z,24.62
2022-10-05T17:38:24.651Z,25.21
2022-10-05T17:41:21.756Z,24.43
2022-10-05T17:44:24.564Z,24.04
2022-10-05T17:46:57.915Z,25.25
2022-10-05T17:50:16.723Z,24.32
2022-10-05T17:53:03.815Z,25.22
2022-10-05T17:55:50.130Z,24.60
2022-10-05T17:58:58.424Z,24.70
2022-10-05T18:01:30.450Z,25.53
2022-10-05T18:04:35.488Z,24.98
2022-10-05T18:07:17.261Z,25.08
2022-10-05T18:09:58.818Z,24.60
2022-10-05T18:12:43.118Z,24.71
2022-10-05T18:15:31.389Z,25.23
2022-10-05T18:18:20.618Z,26.07
2022-10-05T18:21:08.735Z,25.35
2022-10-05T18:23:38.669Z,25.59
2022-10-05T18:26:09.330Z,25.98
2022-10-05T18:28:48.241Z,25.34
2022-10-05T18:31:23.677Z,25.64
2022-10-05T18:34:19.249Z,25.54
2022-10-05T18:36:57.282Z,26.41
2022-10-05T18:39:50.593Z,25.98
2022-10-05T18:42:37.465Z,26.15
2022-10-05T18:45:18.037Z,26.60
2022-10-05T18:47:50.448Z,26.77
2022-10-05T18:50:25.476Z,26.82
2022-10-05T18:53:08.560Z,27.00
2022-10-05T18:55:42.307Z,27.15
2022-10-05T18:58:22.502Z,27.48
2022-10-05T19:01:02.747Z,27.30
2022-10-05T19:03:37.609Z,27.39
2022-10-05T19:06:13.483Z,27.31
2022-10-05T19:08:51.088Z,27.59
2022-10-05T19:11:24.349Z,27.59
2022-10-05T19:13:58.587Z,27.62
2022-10-05T19:16:41.437Z,27.32
2022-10-05T19:19:29.350Z,27.89
2022-10-05T19:22:03.348Z,28.13
2022-10-05T19:24:43.285Z,27.63
2022-10-05T19:27:20.958Z,27.56
2022-10-05T19:30:08.665Z,27.66
2022-10-05T19:32:47.219Z,28.02
2022-10-05T19:35:23.744Z,27.73
2022-10-05T19:38:00.731Z,28.18
2022-10-05T19:40:34.647Z,28.48
2022-10-05T19:43:24.374Z,27.88
2022-10-05T19:46:01.958Z,28.26
2022-10-05T19:48:35.687Z,28.74
2022-10-05T19:51:06.775Z,28.79
2022-10-05T19:53:38.485Z,28.87
2022-10-05T19:56:20.479Z,28.54
2022-10-05T19:58:52.018Z,29.01
2022-10-05T20:01:25.799Z,28.50
2022-10-05T20:03:54.812Z,29.10
2022-10-05T20:06:39.594Z,29.58
2022-10-05T20:09:20.730Z,28.79
2022-10-05T20:11:57.720Z,29.70
2022-10-05T20:14:32.981Z,28.76
2022-10-05T20:17:44.367Z,28.42
2022-10-05T20:20:24.789Z,28.38
2022-10-05T20:22:53.206Z,29.87
2022-10-05T20:25:32.064Z,29.18
2022-10-05T20:28:02.414Z,29.82
2022-10-05T20:30:34.034Z,29.63
2022-10-05T20:33:04.726Z,29.96
2022-10-05T20:35:32.949Z,30.08
2022-10-05T20:38:02.848Z,29.56
2022-10-05T20:40:31.851Z,29.87
2022-10-05T20:43:29.628Z,30.01
2022-10-05T20:45:59.455Z,29.86
2022-10-05T20:48:29.626Z,29.88
2022-10-05T20:50:58.630Z,29.56
2022-10-05T20:53:26.877Z,29.73
2022-10-05T20:56:02.577Z,30.24
2022-10-05T20:58:31.283Z,29.98
2022-10-05T21:01:19.983Z,29.92
2022-10-05T21:03:48.418Z,30.05
2022-10-05T21:06:18.048Z,30.08
2022-10-05T21:08:46.389Z,30.15
2022-10-05T21:11:15.050Z,30.07
2022-10-05T21:13:45.487Z,30.08
2022-10-05T21:16:17.641Z,29.87
2022-10-05T21:18:49.644Z,29.63
2022-10-05T21:21:19.105Z,29.76
2022-10-05T21:23:48.728Z,29.91
2022-10-05T21:26:16.928Z,30.22
2022-10-05T21:28:45.258Z,30.03
2022-10-05T21:31:15.032Z,30.00
2022-10-05T21:33:43.236Z,30.11
2022-10-05T21:36:11.398Z,30.13
2022-10-05T21:38:39.754Z,30.24
2022-10-05T21:41:07.961Z,29.87
2022-10-05T21:43:36.230Z,30.47
2022-10-05T21:46:05.198Z,30.53
2022-10-05T21:48:36.472Z,30.41
2022-10-05T21:51:05.094Z,29.07
2022-10-05T21:53:35.618Z,30.21
2022-10-05T21:56:06.120Z,30.11
2022-10-05T21:58:34.499Z,30.42
2022-10-05T22:01:03.207Z,30.77
2022-10-05T22:03:31.465Z,30.45
2022-10-05T22:06:01.407Z,30.20
2022-10-05T22:08:31.355Z,30.43
2022-10-05T22:10:59.959Z,30.63
2022-10-05T22:13:29.068Z,30.97
2022-10-05T22:15:57.868Z,31.04
2022-10-05T22:18:27.251Z,31.28
2022-10-05T22:20:56.280Z,31.25
2022-10-05T22:23:25.863Z,31.09
2022-10-05T22:25:54.503Z,31.17
2022-10-05T22:28:23.180Z,31.13
2022-10-05T22:30:51.434Z,31.27
2022-10-05T22:33:19.711Z,31.19
2022-10-05T22:35:48.304Z,31.34
2022-10-05T22:38:16.784Z,31.36
2022-10-05T22:40:46.360Z,31.16
2022-10-05T22:43:14.936Z,31.60
2022-10-05T22:45:43.182Z,31.31
2022-10-05T22:48:11.559Z,31.63
2022-10-05T22:50:40.020Z,31.58
2022-10-05T22:53:08.387Z,31.68
2022-10-05T22:55:36.566Z,31.69
2022-10-05T22:58:06.447Z,31.40
2022-10-05T23:00:56.444Z,31.62
2022-10-05T23:03:23.745Z,31.75
2022-10-05T23:05:57.906Z,31.14
2022-10-05T23:08:27.056Z,31.68
2022-10-05T23:10:55.778Z,31.94
2022-10-05T23:13:26.659Z,31.68
2022-10-05T23:15:55.224Z,31.79
2022-10-05T23:18:23.579Z,31.73
2022-10-05T23:20:55.521Z,31.32
2022-10-05T23:23:25.598Z,31.79
2022-10-05T23:25:53.935Z,31.88
2022-10-05T23:28:22.507Z,32.04
2022-10-05T23:30:52.423Z,32.11
2022-10-05T23:33:20.851Z,32.40
2022-10-05T23:35:51.265Z,32.54
2022-10-05T23:38:19.771Z,32.28
2022-10-05T23:40:48.570Z,32.11
2022-10-05T23:43:16.794Z,32.35
2022-10-05T23:45:45.624Z,32.23
2022-10-05T23:48:15.402Z,31.98
2022-10-05T23:50:44.177Z,32.26
2022-10-05T23:53:12.778Z,32.36
2022-10-05T23:55:40.965Z,32.36
2022-10-05T23:58:09.475Z,32.21
